Time;durP1;ratioP1;P1;durP2;ratioP2;P2;SDS_P1;SDS_P2;PMS_P1;PMS_P2;Temp;Humidity;BMP_temperature;BMP_pressure;BME280_temperature;BME280_humidity;BME280_pressure;Samples;Min_cycle;Max_cycle;Signal;HPM_P1;HPM_P2
2023/09/19 00:01:08;;;;;;;8.77;3.00;;;;;;;;;;5053452;28;20377;-59
2023/09/19 00:03:37;;;;;;;10.43;2.78;;;;;;;;;;5053013;28;20124;-59
2023/09/19 00:06:03;;;;;;;9.32;2.67;;;;;;;;;;5055293;28;20032;-59
2023/09/19 00:08:28;;;;;;;9.13;3.05;;;;;;;;;;5050828;28;20095;-59
2023/09/19 00:10:54;;;;;;;9.32;3.05;;;;;;;;;;5048963;28;20107;-60
2023/09/19 00:13:20;;;;;;;7.78;2.88;;;;;;;;;;5042763;28;20029;-60
2023/09/19 00:15:50;;;;;;;8.40;3.00;;;;;;;;;;5054941;28;20470;-61
2023/09/19 00:18:24;;;;;;;6.32;2.65;;;;;;;;;;5054741;28;20052;-60
2023/09/19 00:20:51;;;;;;;7.72;2.92;;;;;;;;;;5054830;28;20037;-60
2023/09/19 00:23:16;;;;;;;6.22;2.75;;;;;;;;;;5050720;28;20124;-60
2023/09/19 00:25:42;;;;;;;9.43;2.70;;;;;;;;;;5052049;28;20108;-60
2023/09/19 00:28:07;;;;;;;6.38;2.80;;;;;;;;;;5049135;28;20064;-59
2023/09/19 00:30:34;;;;;;;7.68;2.70;;;;;;;;;;5046079;28;20036;-60
2023/09/19 00:33:00;;;;;;;6.50;2.30;;;;;;;;;;5041915;28;20037;-60
2023/09/19 00:35:27;;;;;;;10.05;2.78;;;;;;;;;;5050073;28;20086;-59
2023/09/19 00:37:53;;;;;;;4.18;2.00;;;;;;;;;;5048962;28;20040;-61
2023/09/19 00:40:19;;;;;;;8.00;2.35;;;;;;;;;;5051654;28;20033;-59
2023/09/19 00:42:46;;;;;;;9.50;2.40;;;;;;;;;;5052792;28;20025;-59
2023/09/19 00:45:13;;;;;;;6.05;2.30;;;;;;;;;;5053156;28;20093;-59
2023/09/19 00:47:49;;;;;;;8.35;2.65;;;;;;;;;;5051531;28;20036;-58
2023/09/19 00:50:17;;;;;;;8.65;2.75;;;;;;;;;;5051010;28;20044;-59
2023/09/19 00:52:43;;;;;;;9.27;2.20;;;;;;;;;;5045853;28;20559;-59
2023/09/19 00:55:10;;;;;;;12.00;2.60;;;;;;;;;;5046369;28;20040;-59
2023/09/19 00:57:38;;;;;;;11.07;2.78;;;;;;;;;;5045154;28;20025;-59
2023/09/19 01:00:12;;;;;;;8.65;2.50;;;;;;;;;;5052251;28;20127;-58
2023/09/19 01:02:37;;;;;;;13.13;2.42;;;;;;;;;;5052531;28;20025;-59
2023/09/19 01:05:04;;;;;;;11.80;2.50;;;;;;;;;;5051074;28;20033;-59
2023/09/19 01:07:33;;;;;;;10.55;2.55;;;;;;;;;;5051753;28;20029;-59
2023/09/19 01:10:00;;;;;;;8.32;2.33;;;;;;;;;;5049306;28;20029;-59
2023/09/19 01:12:41;;;;;;;8.10;2.30;;;;;;;;;;5050639;28;20028;-59
2023/09/19 01:15:28;;;;;;;10.52;2.63;;;;;;;;;;5052401;28;20032;-57
2023/09/19 01:18:09;;;;;;;10.80;2.67;;;;;;;;;;5054095;28;20059;-58
2023/09/19 01:20:40;;;;;;;9.20;2.67;;;;;;;;;;5051557;28;20112;-58
2023/09/19 01:23:38;;;;;;;9.73;2.95;;;;;;;;;;5049252;28;20041;-57
2023/09/19 01:26:21;;;;;;;9.55;2.33;;;;;;;;;;5050988;28;20033;-56
2023/09/19 01:29:01;;;;;;;9.20;2.80;;;;;;;;;;5052201;28;20095;-57
2023/09/19 01:31:31;;;;;;;9.93;2.67;;;;;;;;;;5051814;28;20118;-58
2023/09/19 01:34:03;;;;;;;7.50;2.35;;;;;;;;;;5047026;28;20271;-57
2023/09/19 01:36:36;;;;;;;11.27;2.90;;;;;;;;;;5043919;28;20033;-57
2023/09/19 01:39:10;;;;;;;11.80;2.63;;;;;;;;;;5053711;28;20033;-57
2023/09/19 01:41:46;;;;;;;9.38;2.40;;;;;;;;;;5048428;28;20094;-55
2023/09/19 01:44:19;;;;;;;11.48;2.60;;;;;;;;;;5038092;28;20036;-57
2023/09/19 01:46:47;;;;;;;12.30;2.50;;;;;;;;;;5050495;28;20173;-57
2023/09/19 01:49:24;;;;;;;10.23;2.38;;;;;;;;;;5051971;28;20028;-57
2023/09/19 01:52:16;;;;;;;9.52;2.40;;;;;;;;;;5038162;28;20588;-57
2023/09/19 01:54:53;;;;;;;10.07;2.70;;;;;;;;;;5048136;28;20048;-57
2023/09/19 01:57:43;;;;;;;9.48;2.97;;;;;;;;;;5044240;28;20029;-56
2023/09/19 02:00:11;;;;;;;9.40;2.50;;;;;;;;;;5051131;28;20037;-57
2023/09/19 02:02:44;;;;;;;9.45;2.40;;;;;;;;;;5049999;28;20040;-57
2023/09/19 02:05:10;;;;;;;9.05;2.60;;;;;;;;;;5048861;28;20029;-56
2023/09/19 02:07:37;;;;;;;11.73;3.00;;;;;;;;;;5049150;28;20048;-57
2023/09/19 02:10:05;;;;;;;10.82;2.72;;;;;;;;;;5046293;28;20036;-60
2023/09/19 02:12:32;;;;;;;14.68;3.00;;;;;;;;;;5049731;28;20036;-58
2023/09/19 02:14:58;;;;;;;14.60;2.60;;;;;;;;;;5021472;28;20087;-57
2023/09/19 02:17:26;;;;;;;10.77;2.70;;;;;;;;;;5043042;28;20053;-57
2023/09/19 02:19:52;;;;;;;11.10;2.75;;;;;;;;;;5052110;28;20029;-57
2023/09/19 02:22:18;;;;;;;8.80;2.40;;;;;;;;;;5048133;28;20098;-56
2023/09/19 02:24:43;;;;;;;7.10;2.20;;;;;;;;;;5048510;28;20050;-57
2023/09/19 02:27:09;;;;;;;8.13;2.47;;;;;;;;;;5050895;28;20432;-56
2023/09/19 02:29:34;;;;;;;10.90;2.50;;;;;;;;;;5050995;28;20469;-58
2023/09/19 02:32:01;;;;;;;6.68;2.08;;;;;;;;;;5049585;28;20041;-59
2023/09/19 02:34:27;;;;;;;9.88;2.28;;;;;;;;;;5050247;28;20465;-58
2023/09/19 02:36:55;;;;;;;6.88;2.20;;;;;;;;;;5052160;28;20043;-56
2023/09/19 02:39:21;;;;;;;10.43;2.20;;;;;;;;;;5052394;28;20033;-58
2023/09/19 02:41:47;;;;;;;7.93;2.00;;;;;;;;;;5045459;28;20035;-58
2023/09/19 02:44:12;;;;;;;8.38;2.35;;;;;;;;;;5051160;28;20489;-57
2023/09/19 02:46:38;;;;;;;7.75;2.33;;;;;;;;;;5047667;28;20063;-58
2023/09/19 02:49:06;;;;;;;7.70;2.10;;;;;;;;;;5036271;28;20060;-57
2023/09/19 02:51:33;;;;;;;8.48;2.13;;;;;;;;;;5045863;28;20385;-59
2023/09/19 02:54:03;;;;;;;8.70;2.30;;;;;;;;;;5050156;28;20044;-58
2023/09/19 02:56:29;;;;;;;13.18;2.17;;;;;;;;;;5050313;28;20334;-58
2023/09/19 02:58:57;;;;;;;9.90;2.53;;;;;;;;;;5051624;28;20033;-57
2023/09/19 03:01:23;;;;;;;8.48;2.28;;;;;;;;;;5050581;28;20122;-58
2023/09/19 03:03:53;;;;;;;9.93;2.53;;;;;;;;;;5047580;28;20696;-58
2023/09/19 03:06:19;;;;;;;9.95;2.78;;;;;;;;;;5043655;28;20036;-58
2023/09/19 03:08:48;;;;;;;10.00;2.35;;;;;;;;;;5047510;28;20399;-59
2023/09/19 03:11:16;;;;;;;9.98;2.08;;;;;;;;;;5048360;28;20037;-55
2023/09/19 03:13:42;;;;;;;9.68;2.50;;;;;;;;;;5039185;28;20312;-58
2023/09/19 03:16:08;;;;;;;7.75;2.15;;;;;;;;;;5051471;28;20037;-58
2023/09/19 03:18:36;;;;;;;10.15;2.30;;;;;;;;;;5048223;28;20043;-58
2023/09/19 03:21:02;;;;;;;10.75;2.92;;;;;;;;;;5050912;28;20470;-58
2023/09/19 03:23:28;;;;;;;9.15;2.38;;;;;;;;;;5045287;28;20095;-58
2023/09/19 03:25:56;;;;;;;8.02;2.40;;;;;;;;;;5048181;28;20260;-58
2023/09/19 03:28:22;;;;;;;10.02;2.25;;;;;;;;;;5049256;28;20112;-56
2023/09/19 03:31:07;;;;;;;5.18;2.28;;;;;;;;;;5043115;28;20376;-57
2023/09/19 03:33:33;;;;;;;10.10;2.40;;;;;;;;;;5043273;28;20501;-58
2023/09/19 03:36:00;;;;;;;9.93;2.10;;;;;;;;;;5048833;28;20036;-57
2023/09/19 03:38:27;;;;;;;9.05;2.10;;;;;;;;;;5047679;28;20079;-59
2023/09/19 03:40:53;;;;;;;6.72;2.15;;;;;;;;;;5050116;28;20033;-57
2023/09/19 03:43:19;;;;;;;12.13;2.35;;;;;;;;;;5049935;28;20028;-57
2023/09/19 03:45:46;;;;;;;9.27;2.55;;;;;;;;;;5019396;28;20538;-58
2023/09/19 03:48:13;;;;;;;12.52;2.50;;;;;;;;;;5045385;28;20036;-56
2023/09/19 03:50:39;;;;;;;8.23;2.38;;;;;;;;;;5047668;28;20033;-56
2023/09/19 03:53:04;;;;;;;9.70;2.10;;;;;;;;;;5041957;28;20176;-56
2023/09/19 03:55:30;;;;;;;8.43;2.40;;;;;;;;;;5047949;28;20078;-58
2023/09/19 03:57:56;;;;;;;7.43;2.00;;;;;;;;;;5032209;28;20030;-59
2023/09/19 04:00:24;;;;;;;8.20;2.47;;;;;;;;;;5045930;28;20108;-58
2023/09/19 04:02:52;;;;;;;11.32;2.30;;;;;;;;;;5050452;28;20021;-58
2023/09/19 04:05:18;;;;;;;12.30;2.55;;;;;;;;;;5048953;28;20037;-57
2023/09/19 04:07:43;;;;;;;10.77;3.13;;;;;;;;;;5039943;28;20025;-58
2023/09/19 04:10:11;;;;;;;11.32;2.67;;;;;;;;;;5043836;28;20123;-58
2023/09/19 04:12:38;;;;;;;10.32;2.47;;;;;;;;;;5050148;28;20691;-58
2023/09/19 04:15:05;;;;;;;12.27;2.50;;;;;;;;;;5050414;28;20040;-57
2023/09/19 04:17:32;;;;;;;14.65;2.60;;;;;;;;;;5046665;28;20072;-59
2023/09/19 04:19:58;;;;;;;10.80;3.05;;;;;;;;;;5045317;28;20116;-55
2023/09/19 04:22:23;;;;;;;13.80;2.70;;;;;;;;;;5041175;28;20111;-58
2023/09/19 04:24:49;;;;;;;11.60;2.67;;;;;;;;;;5049060;28;20029;-58
2023/09/19 04:27:14;;;;;;;8.65;2.40;;;;;;;;;;5047552;28;20040;-59
2023/09/19 04:29:42;;;;;;;9.40;2.45;;;;;;;;;;5033452;28;20033;-57
2023/09/19 04:32:09;;;;;;;8.32;2.13;;;;;;;;;;5044373;28;20041;-58
2023/09/19 04:34:35;;;;;;;8.98;2.40;;;;;;;;;;5049716;28;20086;-59
2023/09/19 04:37:00;;;;;;;10.63;3.05;;;;;;;;;;5044964;28;20045;-58
2023/09/19 04:39:26;;;;;;;7.80;2.28;;;;;;;;;;5050881;28;20033;-57
2023/09/19 04:41:53;;;;;;;14.95;2.60;;;;;;;;;;5052172;28;20271;-58
2023/09/19 04:44:18;;;;;;;10.48;2.55;;;;;;;;;;5053155;28;20071;-58
2023/09/19 04:46:46;;;;;;;10.95;2.53;;;;;;;;;;5053850;28;20037;-58
2023/09/19 04:49:12;;;;;;;9.18;2.42;;;;;;;;;;5051556;28;20108;-59
2023/09/19 04:51:37;;;;;;;9.70;2.50;;;;;;;;;;5032592;28;20056;-56
2023/09/19 04:54:03;;;;;;;12.30;2.47;;;;;;;;;;5049320;28;20033;-56
2023/09/19 04:56:32;;;;;;;10.10;2.92;;;;;;;;;;5053779;28;20021;-56
2023/09/19 04:58:58;;;;;;;5.20;2.40;;;;;;;;;;5048525;28;20067;-56
2023/09/19 05:01:25;;;;;;;8.00;2.15;;;;;;;;;;5044586;28;20029;-58
2023/09/19 05:03:52;;;;;;;6.88;2.42;;;;;;;;;;5052875;28;20497;-56
2023/09/19 05:06:21;;;;;;;9.88;2.50;;;;;;;;;;5052732;28;20033;-54
2023/09/19 05:08:50;;;;;;;11.07;2.50;;;;;;;;;;5046431;28;20037;-57
2023/09/19 05:11:17;;;;;;;7.82;2.08;;;;;;;;;;5053344;28;20033;-58
2023/09/19 05:13:43;;;;;;;10.30;2.25;;;;;;;;;;5040572;28;20086;-57
2023/09/19 05:16:09;;;;;;;10.02;2.30;;;;;;;;;;5048518;28;20025;-57
2023/09/19 05:18:35;;;;;;;10.48;2.50;;;;;;;;;;5038917;28;20025;-60
2023/09/19 05:21:02;;;;;;;10.20;2.90;;;;;;;;;;5050660;28;20040;-56
2023/09/19 05:23:28;;;;;;;8.90;2.50;;;;;;;;;;5053330;28;20172;-53
2023/09/19 05:25:54;;;;;;;6.68;2.00;;;;;;;;;;5052852;28;20056;-54
2023/09/19 05:28:20;;;;;;;10.80;2.70;;;;;;;;;;5053896;28;20480;-58
2023/09/19 05:30:45;;;;;;;12.55;2.63;;;;;;;;;;5053112;28;20043;-57
2023/09/19 05:33:11;;;;;;;8.77;2.33;;;;;;;;;;5051030;28;20043;-59
2023/09/19 05:35:39;;;;;;;9.90;2.40;;;;;;;;;;5053779;28;20025;-60
2023/09/19 05:38:08;;;;;;;8.05;2.47;;;;;;;;;;5049798;28;20170;-60
2023/09/19 05:40:34;;;;;;;7.85;1.95;;;;;;;;;;5042974;28;20125;-60
2023/09/19 05:43:00;;;;;;;13.20;2.47;;;;;;;;;;5035298;28;20458;-58
2023/09/19 05:45:27;;;;;;;11.18;2.72;;;;;;;;;;5053569;28;20078;-60
2023/09/19 05:48:04;;;;;;;10.00;2.30;;;;;;;;;;5050947;28;20033;-60
2023/09/19 05:50:29;;;;;;;10.05;2.20;;;;;;;;;;5051512;28;20029;-61
2023/09/19 05:52:55;;;;;;;8.40;2.40;;;;;;;;;;5052135;28;20487;-60
2023/09/19 05:55:24;;;;;;;12.43;2.10;;;;;;;;;;5052710;28;20032;-57
2023/09/19 05:57:51;;;;;;;10.90;2.85;;;;;;;;;;5051141;28;20032;-61
2023/09/19 06:00:22;;;;;;;13.02;2.70;;;;;;;;;;5052524;28;20036;-60
2023/09/19 06:02:57;;;;;;;10.68;2.30;;;;;;;;;;5053012;28;20043;-60
2023/09/19 06:05:24;;;;;;;8.55;2.28;;;;;;;;;;5033489;28;20037;-59
2023/09/19 06:07:50;;;;;;;9.85;2.20;;;;;;;;;;5032507;28;20072;-60
2023/09/19 06:10:17;;;;;;;14.27;2.55;;;;;;;;;;5053006;28;20029;-60
2023/09/19 06:12:43;;;;;;;12.63;2.45;;;;;;;;;;5052163;28;20110;-60
2023/09/19 06:15:14;;;;;;;7.88;2.28;;;;;;;;;;5051665;28;20032;-60
2023/09/19 06:17:46;;;;;;;9.93;2.35;;;;;;;;;;5048218;28;20106;-58
2023/09/19 06:20:15;;;;;;;12.27;2.65;;;;;;;;;;5051749;28;20114;-57
2023/09/19 06:22:44;;;;;;;9.98;2.38;;;;;;;;;;5051819;28;20037;-57
2023/09/19 06:25:11;;;;;;;10.32;2.55;;;;;;;;;;5051037;28;20063;-56
2023/09/19 06:27:44;;;;;;;8.88;2.15;;;;;;;;;;5051806;28;20021;-54
2023/09/19 06:30:11;;;;;;;12.93;2.20;;;;;;;;;;5048201;28;20034;-61
2023/09/19 06:32:36;;;;;;;10.15;2.45;;;;;;;;;;5032657;28;20064;-60
2023/09/19 06:35:02;;;;;;;9.68;2.13;;;;;;;;;;5048385;28;20106;-58
2023/09/19 06:37:29;;;;;;;5.97;1.75;;;;;;;;;;5052453;28;20068;-58
2023/09/19 06:39:54;;;;;;;10.57;1.85;;;;;;;;;;5051374;28;20477;-61
2023/09/19 06:42:20;;;;;;;8.57;2.15;;;;;;;;;;5049981;28;20025;-57
2023/09/19 06:44:46;;;;;;;8.93;1.95;;;;;;;;;;5051131;28;20029;-60
2023/09/19 06:47:11;;;;;;;13.35;2.50;;;;;;;;;;5049483;28;20395;-58
2023/09/19 06:49:37;;;;;;;7.38;1.90;;;;;;;;;;5052247;28;20029;-61
2023/09/19 06:52:03;;;;;;;5.90;2.05;;;;;;;;;;5051459;28;20045;-60
2023/09/19 06:54:34;;;;;;;10.23;2.13;;;;;;;;;;5051919;28;20083;-60
2023/09/19 06:56:59;;;;;;;8.15;2.38;;;;;;;;;;5051288;28;20177;-57
2023/09/19 06:59:25;;;;;;;10.85;2.58;;;;;;;;;;5050977;28;20393;-59
2023/09/19 07:01:51;;;;;;;8.73;2.05;;;;;;;;;;5048248;28;20044;-60
2023/09/19 07:04:19;;;;;;;11.23;2.33;;;;;;;;;;5051714;28;20025;-60
2023/09/19 07:06:49;;;;;;;7.95;2.10;;;;;;;;;;5049918;28;20033;-59
2023/09/19 07:09:15;;;;;;;10.68;2.15;;;;;;;;;;5052327;28;20033;-59
2023/09/19 07:11:40;;;;;;;8.43;2.25;;;;;;;;;;5049085;28;20048;-59
2023/09/19 07:14:06;;;;;;;7.57;2.20;;;;;;;;;;5049825;28;20036;-59
2023/09/19 07:16:31;;;;;;;9.68;2.20;;;;;;;;;;5044689;28;20393;-58
2023/09/19 07:18:57;;;;;;;8.27;2.00;;;;;;;;;;5050582;28;20462;-57
2023/09/19 07:21:23;;;;;;;6.78;2.60;;;;;;;;;;5039134;28;20037;-57
2023/09/19 07:23:49;;;;;;;8.15;2.00;;;;;;;;;;5051023;28;20174;-57
2023/09/19 07:26:15;;;;;;;15.00;2.30;;;;;;;;;;5051683;28;20033;-59
2023/09/19 07:28:40;;;;;;;14.50;2.30;;;;;;;;;;5033835;28;20037;-57
2023/09/19 07:31:09;;;;;;;12.05;2.47;;;;;;;;;;5050691;28;20029;-58
2023/09/19 07:33:35;;;;;;;4.57;1.83;;;;;;;;;;5050852;28;20140;-56
2023/09/19 07:36:01;;;;;;;9.10;2.40;;;;;;;;;;5038302;28;20065;-57
2023/09/19 07:38:27;;;;;;;7.18;2.47;;;;;;;;;;5051107;28;20025;-55
2023/09/19 07:40:52;;;;;;;8.57;2.25;;;;;;;;;;5050567;28;20041;-55
2023/09/19 07:43:18;;;;;;;9.43;2.38;;;;;;;;;;5051195;28;20028;-58
2023/09/19 07:45:43;;;;;;;6.22;2.10;;;;;;;;;;5050745;28;20033;-58
2023/09/19 07:48:14;;;;;;;10.15;2.30;;;;;;;;;;5050232;28;20033;-59
2023/09/19 07:50:40;;;;;;;7.78;2.08;;;;;;;;;;5051391;28;20519;-61
2023/09/19 07:53:05;;;;;;;11.70;2.95;;;;;;;;;;5050520;28;20032;-58
2023/09/19 07:55:33;;;;;;;8.35;2.15;;;;;;;;;;5051894;28;20082;-59
2023/09/19 07:57:59;;;;;;;7.82;2.22;;;;;;;;;;5050321;28;20053;-59
2023/09/19 08:00:24;;;;;;;8.35;2.10;;;;;;;;;;5051015;28;20719;-58
2023/09/19 08:02:51;;;;;;;8.95;2.30;;;;;;;;;;5050607;28;20025;-60
2023/09/19 08:05:18;;;;;;;6.43;2.05;;;;;;;;;;5050909;28;20068;-58
2023/09/19 08:07:48;;;;;;;10.15;2.28;;;;;;;;;;5040105;28;20453;-60
2023/09/19 08:10:15;;;;;;;6.68;2.13;;;;;;;;;;5049874;28;20095;-59
2023/09/19 08:12:56;;;;;;;9.00;2.67;;;;;;;;;;5051101;28;20049;-58
2023/09/19 08:15:21;;;;;;;8.23;1.77;;;;;;;;;;5054055;28;20064;-58
2023/09/19 08:17:48;;;;;;;9.90;2.15;;;;;;;;;;5054263;28;20490;-61
2023/09/19 08:20:18;;;;;;;7.10;1.92;;;;;;;;;;5048133;28;20043;-60
2023/09/19 08:22:47;;;;;;;10.30;2.38;;;;;;;;;;5035095;28;20044;-59
2023/09/19 08:25:13;;;;;;;8.38;2.40;;;;;;;;;;5046545;28;20037;-57
2023/09/19 08:27:38;;;;;;;9.10;2.38;;;;;;;;;;5054427;28;20083;-59
2023/09/19 08:30:04;;;;;;;8.02;1.90;;;;;;;;;;5053632;28;20368;-58
2023/09/19 08:32:29;;;;;;;9.30;2.50;;;;;;;;;;5054816;28;20428;-59
2023/09/19 08:34:55;;;;;;;6.13;1.92;;;;;;;;;;5051370;28;20068;-59
2023/09/19 08:37:21;;;;;;;5.55;2.05;;;;;;;;;;5054740;28;20428;-59
2023/09/19 08:39:46;;;;;;;15.07;2.70;;;;;;;;;;5054110;28;20338;-61
2023/09/19 08:42:12;;;;;;;8.90;2.40;;;;;;;;;;5054410;28;20487;-60
2023/09/19 08:44:40;;;;;;;5.30;2.08;;;;;;;;;;5054410;28;20029;-60
2023/09/19 08:47:13;;;;;;;10.48;2.47;;;;;;;;;;5046553;28;20615;-60
2023/09/19 08:49:57;;;;;;;10.25;2.00;;;;;;;;;;5040707;28;20108;-59
2023/09/19 08:52:28;;;;;;;9.82;2.65;;;;;;;;;;5053673;28;20036;-59
2023/09/19 08:55:01;;;;;;;9.65;2.00;;;;;;;;;;5053562;28;20032;-59
2023/09/19 08:57:29;;;;;;;6.47;1.50;;;;;;;;;;5054492;28;20112;-58
2023/09/19 08:59:56;;;;;;;15.38;2.40;;;;;;;;;;5051656;28;20032;-61
2023/09/19 09:02:23;;;;;;;13.77;2.67;;;;;;;;;;5050997;28;20520;-60
2023/09/19 09:04:52;;;;;;;7.80;2.20;;;;;;;;;;5039152;28;20435;-60
2023/09/19 09:07:19;;;;;;;8.35;2.22;;;;;;;;;;5053985;28;20025;-59
2023/09/19 09:09:45;;;;;;;8.93;2.10;;;;;;;;;;5054141;28;20029;-59
2023/09/19 09:12:15;;;;;;;9.05;2.10;;;;;;;;;;5053452;28;20033;-61
2023/09/19 09:14:45;;;;;;;10.23;2.80;;;;;;;;;;5053703;28;20048;-61
2023/09/19 09:17:14;;;;;;;14.27;3.00;;;;;;;;;;5053308;28;20053;-60
2023/09/19 09:19:41;;;;;;;7.07;2.10;;;;;;;;;;5045864;28;20071;-59
2023/09/19 09:22:10;;;;;;;9.05;1.90;;;;;;;;;;5037706;28;20044;-59
2023/09/19 09:24:39;;;;;;;8.65;2.30;;;;;;;;;;5045194;28;20110;-60
2023/09/19 09:27:08;;;;;;;7.40;2.20;;;;;;;;;;5052086;28;20025;-59
2023/09/19 09:29:41;;;;;;;9.40;2.00;;;;;;;;;;5053871;28;20033;-59
2023/09/19 09:32:20;;;;;;;8.70;2.22;;;;;;;;;;5053016;28;20182;-57
2023/09/19 09:34:53;;;;;;;5.55;1.77;;;;;;;;;;5051760;28;20056;-58
2023/09/19 09:37:22;;;;;;;11.90;2.28;;;;;;;;;;5032303;28;20393;-58
2023/09/19 09:39:58;;;;;;;8.25;2.33;;;;;;;;;;5039383;28;20032;-58
2023/09/19 09:42:35;;;;;;;7.63;2.10;;;;;;;;;;5053319;28;20036;-53
2023/09/19 09:48:03;;;;;;;13.90;2.60;;;;;;;;;;5050181;28;20141;-57
2023/09/19 09:53:32;;;;;;;5.80;1.88;;;;;;;;;;5029968;28;20080;-58
2023/09/19 09:56:13;;;;;;;10.65;2.20;;;;;;;;;;5052164;28;20059;-58
2023/09/19 09:58:58;;;;;;;6.90;2.08;;;;;;;;;;5043239;28;20521;-59
2023/09/19 10:01:26;;;;;;;8.40;2.10;;;;;;;;;;5052706;28;20037;-57
2023/09/19 10:03:57;;;;;;;7.05;2.00;;;;;;;;;;5052230;28;20060;-58
2023/09/19 10:06:25;;;;;;;10.73;1.98;;;;;;;;;;5052515;28;20393;-58
2023/09/19 10:09:11;;;;;;;7.85;2.25;;;;;;;;;;5052802;28;20113;-59
2023/09/19 10:11:47;;;;;;;4.53;2.15;;;;;;;;;;5051742;28;20028;-56
2023/09/19 10:14:15;;;;;;;10.68;2.35;;;;;;;;;;5050860;28;20048;-58
2023/09/19 10:16:48;;;;;;;7.00;2.30;;;;;;;;;;5052757;28;20080;-58
2023/09/19 10:19:51;;;;;;;9.23;2.30;;;;;;;;;;5052347;28;20075;-59
2023/09/19 10:22:22;;;;;;;6.63;2.58;;;;;;;;;;5021132;28;20044;-58
2023/09/19 10:24:52;;;;;;;7.35;2.00;;;;;;;;;;5052656;28;20116;-59
2023/09/19 10:27:19;;;;;;;11.02;2.30;;;;;;;;;;5051475;28;20037;-60
2023/09/19 10:29:49;;;;;;;6.97;2.10;;;;;;;;;;5037814;28;20084;-59
2023/09/19 10:32:18;;;;;;;6.45;1.92;;;;;;;;;;5052251;28;20029;-58
2023/09/19 10:34:47;;;;;;;10.02;2.22;;;;;;;;;;5052844;28;20090;-59
2023/09/19 10:37:14;;;;;;;6.38;1.98;;;;;;;;;;5051241;28;20025;-59
2023/09/19 10:39:41;;;;;;;9.43;2.03;;;;;;;;;;5050009;28;20037;-59
2023/09/19 10:42:08;;;;;;;4.47;1.58;;;;;;;;;;5051563;28;20438;-59
2023/09/19 10:44:42;;;;;;;6.47;1.95;;;;;;;;;;5052403;28;20044;-58
2023/09/19 10:47:08;;;;;;;7.90;2.00;;;;;;;;;;5050936;28;20025;-58
2023/09/19 10:49:34;;;;;;;6.60;2.03;;;;;;;;;;5052339;28;20055;-57
2023/09/19 10:52:01;;;;;;;8.45;2.00;;;;;;;;;;5046870;28;20060;-58
2023/09/19 10:54:32;;;;;;;4.35;1.48;;;;;;;;;;5050618;28;20390;-60
2023/09/19 10:56:59;;;;;;;6.55;2.15;;;;;;;;;;5051232;28;20515;-60
2023/09/19 10:59:25;;;;;;;6.43;2.10;;;;;;;;;;5052154;28;20033;-59
2023/09/19 11:01:53;;;;;;;6.15;1.60;;;;;;;;;;5051722;28;20120;-60
2023/09/19 11:04:38;;;;;;;2.88;1.30;;;;;;;;;;5051391;28;20025;-59
2023/09/19 11:07:15;;;;;;;6.40;2.20;;;;;;;;;;5050999;28;20033;-58
2023/09/19 11:09:54;;;;;;;4.15;1.80;;;;;;;;;;5049642;28;20036;-58
2023/09/19 11:12:29;;;;;;;7.00;1.90;;;;;;;;;;5044487;28;20040;-58
2023/09/19 11:14:54;;;;;;;7.53;2.10;;;;;;;;;;5031867;28;20036;-60
2023/09/19 11:17:20;;;;;;;8.43;2.58;;;;;;;;;;5051007;28;20041;-60
2023/09/19 11:22:59;;;;;;;6.88;1.92;;;;;;;;;;5051958;28;20043;-56
2023/09/19 11:25:30;;;;;;;10.15;2.20;;;;;;;;;;5047191;28;20037;-60
2023/09/19 11:28:08;;;;;;;4.00;1.58;;;;;;;;;;5036906;28;20056;-60
2023/09/19 11:30:43;;;;;;;4.65;1.60;;;;;;;;;;5038975;28;20469;-59
2023/09/19 11:33:33;;;;;;;6.45;1.83;;;;;;;;;;5050560;28;20033;-57
2023/09/19 11:36:15;;;;;;;5.13;1.67;;;;;;;;;;5050180;28;20372;-58
2023/09/19 11:38:49;;;;;;;6.63;1.85;;;;;;;;;;5032058;28;20053;-59
2023/09/19 11:41:21;;;;;;;4.88;1.70;;;;;;;;;;5043355;28;20035;-57
2023/09/19 11:44:16;;;;;;;6.43;2.05;;;;;;;;;;5050510;28;20111;-58
2023/09/19 11:46:53;;;;;;;5.30;1.83;;;;;;;;;;5051269;28;20035;-59
2023/09/19 11:49:26;;;;;;;7.97;2.10;;;;;;;;;;5054602;28;20029;-59
2023/09/19 11:51:51;;;;;;;5.32;1.98;;;;;;;;;;5056755;28;20048;-59
2023/09/19 11:54:24;;;;;;;11.65;2.13;;;;;;;;;;5055524;28;20512;-58
2023/09/19 11:56:51;;;;;;;8.55;1.95;;;;;;;;;;5058067;28;20037;-57
2023/09/19 11:59:27;;;;;;;6.68;2.15;;;;;;;;;;5056047;28;20049;-56
2023/09/19 12:01:58;;;;;;;8.05;1.83;;;;;;;;;;5058069;28;20123;-58
2023/09/19 12:04:45;;;;;;;7.55;2.00;;;;;;;;;;5056460;28;20029;-60
2023/09/19 12:07:15;;;;;;;6.35;1.88;;;;;;;;;;5047582;28;20037;-55
2023/09/19 12:09:50;;;;;;;6.22;1.98;;;;;;;;;;5051149;28;20475;-60
2023/09/19 12:12:35;;;;;;;5.60;2.13;;;;;;;;;;5055324;28;20054;-61
2023/09/19 12:15:03;;;;;;;6.32;2.03;;;;;;;;;;5055649;28;20036;-59
2023/09/19 12:17:36;;;;;;;5.03;1.70;;;;;;;;;;5057088;28;20060;-61
2023/09/19 12:20:12;;;;;;;5.22;1.83;;;;;;;;;;5055865;28;20513;-60
2023/09/19 12:22:46;;;;;;;5.65;2.33;;;;;;;;;;5057591;28;20420;-59
2023/09/19 12:25:12;;;;;;;10.07;2.33;;;;;;;;;;5056381;28;20540;-59
2023/09/19 12:27:43;;;;;;;5.35;1.92;;;;;;;;;;5056999;28;20025;-57
2023/09/19 12:30:14;;;;;;;5.95;1.80;;;;;;;;;;5056825;28;20025;-60
2023/09/19 12:32:40;;;;;;;6.53;1.70;;;;;;;;;;5057720;28;20033;-57
2023/09/19 12:35:12;;;;;;;6.50;1.83;;;;;;;;;;5054446;28;20136;-56
2023/09/19 12:37:48;;;;;;;5.97;1.77;;;;;;;;;;5053718;28;20035;-57
2023/09/19 12:40:22;;;;;;;7.78;2.60;;;;;;;;;;5055563;28;20033;-57
2023/09/19 12:42:49;;;;;;;10.38;2.33;;;;;;;;;;5056487;28;20037;-59
2023/09/19 12:45:17;;;;;;;4.20;1.63;;;;;;;;;;5056775;28;20048;-56
2023/09/19 12:48:29;;;;;;;8.65;1.52;;;;;;;;;;5057330;28;20051;-58
2023/09/19 12:51:12;;;;;;;5.97;1.98;;;;;;;;;;5057694;28;20036;-58
2023/09/19 12:53:48;;;;;;;4.38;1.65;;;;;;;;;;5056067;28;20037;-58
2023/09/19 12:56:18;;;;;;;6.10;2.25;;;;;;;;;;5055063;28;20132;-59
2023/09/19 12:58:58;;;;;;;6.82;2.28;;;;;;;;;;5056314;28;20487;-59
2023/09/19 13:01:27;;;;;;;7.53;1.90;;;;;;;;;;5052250;28;20118;-58
2023/09/19 13:04:40;;;;;;;5.35;1.90;;;;;;;;;;5053383;28;20090;-59
2023/09/19 13:07:00;;;;;;;7.07;2.10;;;;;;;;;;5050914;28;20036;-59
2023/09/19 13:09:34;;;;;;;3.65;1.65;;;;;;;;;;5053935;28;20120;-59
2023/09/19 13:12:02;;;;;;;7.88;2.15;;;;;;;;;;5052742;28;20041;-58
2023/09/19 13:14:35;;;;;;;7.25;1.90;;;;;;;;;;5052528;28;20037;-59
2023/09/19 13:17:03;;;;;;;5.88;1.90;;;;;;;;;;5034973;28;20049;-58
2023/09/19 13:19:54;;;;;;;5.03;1.73;;;;;;;;;;5052475;28;20040;-60
2023/09/19 13:22:39;;;;;;;4.72;2.10;;;;;;;;;;5053144;28;20394;-59
2023/09/19 13:25:14;;;;;;;5.68;1.85;;;;;;;;;;5052066;28;20068;-59
2023/09/19 13:27:41;;;;;;;6.18;1.90;;;;;;;;;;5053427;28;20033;-61
2023/09/19 13:30:07;;;;;;;6.68;2.00;;;;;;;;;;5053049;28;20518;-58
2023/09/19 13:32:33;;;;;;;5.30;1.88;;;;;;;;;;5040271;28;20034;-60
2023/09/19 13:34:58;;;;;;;4.47;1.70;;;;;;;;;;5034028;28;20048;-59
2023/09/19 13:37:24;;;;;;;4.72;1.60;;;;;;;;;;5051062;28;20029;-60
2023/09/19 13:39:49;;;;;;;5.78;1.70;;;;;;;;;;5053631;28;20028;-58
2023/09/19 13:42:16;;;;;;;10.50;2.03;;;;;;;;;;5052515;28;20040;-57
2023/09/19 13:44:42;;;;;;;3.63;1.60;;;;;;;;;;5053687;28;20025;-57
2023/09/19 13:47:13;;;;;;;13.07;1.67;;;;;;;;;;5052380;28;20462;-58
2023/09/19 13:49:38;;;;;;;4.40;1.80;;;;;;;;;;5053749;28;20029;-58
2023/09/19 13:52:04;;;;;;;7.10;2.00;;;;;;;;;;5050564;28;20028;-58
2023/09/19 13:54:30;;;;;;;11.18;1.63;;;;;;;;;;5052663;28;20028;-58
2023/09/19 13:56:55;;;;;;;3.33;1.35;;;;;;;;;;5053483;28;20067;-56
2023/09/19 13:59:23;;;;;;;4.53;1.70;;;;;;;;;;5050416;28;20647;-58
2023/09/19 14:01:49;;;;;;;1.98;1.30;;;;;;;;;;5050837;28;20163;-58
2023/09/19 14:04:15;;;;;;;4.60;1.40;;;;;;;;;;5050626;28;20067;-55
2023/09/19 14:06:42;;;;;;;4.57;1.58;;;;;;;;;;5052201;28;20104;-57
2023/09/19 14:09:08;;;;;;;5.80;1.67;;;;;;;;;;5052165;28;20064;-57
2023/09/19 14:11:34;;;;;;;5.25;1.63;;;;;;;;;;5050097;28;20501;-54
2023/09/19 14:14:00;;;;;;;7.18;1.58;;;;;;;;;;5053513;28;20033;-57
2023/09/19 14:16:29;;;;;;;6.25;1.42;;;;;;;;;;5051715;28;20052;-60
2023/09/19 14:18:55;;;;;;;8.60;2.65;;;;;;;;;;5052879;28;20040;-57
2023/09/19 14:21:20;;;;;;;4.43;1.17;;;;;;;;;;5051686;28;20032;-55
2023/09/19 14:23:46;;;;;;;5.95;1.50;;;;;;;;;;5050169;28;20063;-57
2023/09/19 14:26:12;;;;;;;2.40;1.67;;;;;;;;;;5050882;28;20033;-58
2023/09/19 14:28:38;;;;;;;4.22;1.20;;;;;;;;;;5052017;28;20047;-57
2023/09/19 14:31:11;;;;;;;5.60;1.10;;;;;;;;;;5048758;28;20040;-58
2023/09/19 14:33:41;;;;;;;1.88;1.00;;;;;;;;;;5051367;28;20040;-58
2023/09/19 14:36:10;;;;;;;4.30;1.30;;;;;;;;;;5051159;28;20090;-61
2023/09/19 14:38:36;;;;;;;4.88;1.60;;;;;;;;;;5052248;28;20041;-55
2023/09/19 14:41:03;;;;;;;4.75;1.40;;;;;;;;;;5052541;28;20083;-59
2023/09/19 14:43:32;;;;;;;4.88;1.30;;;;;;;;;;5049842;28;20033;-56
2023/09/19 14:46:02;;;;;;;7.22;1.50;;;;;;;;;;5051590;28;20082;-52
2023/09/19 14:48:27;;;;;;;4.78;1.60;;;;;;;;;;5053268;28;20041;-57
2023/09/19 14:50:55;;;;;;;6.20;1.35;;;;;;;;;;5052436;28;20071;-58
2023/09/19 14:53:20;;;;;;;2.75;1.00;;;;;;;;;;5048859;28;20033;-57
2023/09/19 14:55:47;;;;;;;4.35;1.23;;;;;;;;;;5051350;28;20048;-56
2023/09/19 14:58:13;;;;;;;4.43;1.48;;;;;;;;;;5051160;28;20496;-57
2023/09/19 15:00:44;;;;;;;7.40;1.02;;;;;;;;;;5050474;28;20032;-57